Time;durP1;ratioP1;P1;durP2;ratioP2;P2;SDS_P1;SDS_P2;PMS_P1;PMS_P2;Temp;Humidity;BMP_temperature;BMP_pressure;BME280_temperature;BME280_humidity;BME280_pressure;Samples;Min_cycle;Max_cycle;Signal;HPM_P1;HPM_P2
2022/09/29 00:00:48;;;;;;;3.22;2.85;;;;;;;16.38;nan;94252.44;5134380;27;20196;-68
2022/09/29 00:03:15;;;;;;;3.55;3.33;;;;;;;16.54;nan;94267.63;5134248;27;20196;-69
2022/09/29 00:05:46;;;;;;;3.28;2.90;;;;;;;;;;5134277;27;20306;-69
2022/09/29 00:08:12;;;;;;;6.63;2.80;;;;;;;;;;5134543;27;20257;-69
2022/09/29 00:10:41;;;;;;;3.17;2.85;;;;;;;;;;5134318;27;20220;-69
2022/09/29 00:13:07;;;;;;;3.10;2.33;;;;;;;;;;5134369;27;20208;-69
2022/09/29 00:15:34;;;;;;;3.70;2.30;;;;;;;;;;5134734;27;20277;-68
2022/09/29 00:18:00;;;;;;;3.08;2.88;;;;;;;;;;5134482;27;20200;-69
2022/09/29 00:20:27;;;;;;;3.20;2.90;;;;;;;;;;5134202;27;20575;-69
2022/09/29 00:22:53;;;;;;;4.95;3.47;;;;;;;;;;5134092;27;20582;-69
2022/09/29 00:25:20;;;;;;;8.10;3.10;;;;;;;;;;5134546;27;20653;-68
2022/09/29 00:27:48;;;;;;;3.20;2.33;;;;;;;;;;5134008;27;20196;-69
2022/09/29 00:30:14;;;;;;;3.60;2.50;;;;;;;;;;5134226;27;20224;-68
2022/09/29 00:32:41;;;;;;;4.80;2.83;;;;;;;;;;5133985;27;20196;-68
2022/09/29 00:35:09;;;;;;;6.20;3.83;;;;;;;;;;5134130;27;20200;-69
2022/09/29 00:37:35;;;;;;;2.55;2.38;;;;;;;;;;5133896;27;20196;-69
2022/09/29 00:40:02;;;;;;;8.02;2.63;;;;;;;;;;5133887;27;20246;-69
2022/09/29 00:42:30;;;;;;;4.95;2.55;;;;;;;;;;5133763;27;20200;-68
2022/09/29 00:45:14;;;;;;;4.15;2.45;;;;;;;;;;5133916;27;20239;-69
2022/09/29 00:47:42;;;;;;;2.75;2.55;;;;;;;;;;5133825;27;20287;-68
2022/09/29 00:50:12;;;;;;;4.93;2.80;;;;;;;;;;5134259;27;20245;-68
2022/09/29 00:52:41;;;;;;;4.10;2.58;;;;;;;;;;5134092;27;20204;-67
2022/09/29 00:55:10;;;;;;;3.08;2.50;;;;;;;;;;5133940;27;20252;-68
2022/09/29 00:57:38;;;;;;;5.68;3.08;;;;;;;;;;5133460;27;20203;-69
2022/09/29 01:00:06;;;;;;;3.55;2.95;;;;;;;;;;5133591;27;20253;-68
2022/09/29 01:02:36;;;;;;;2.65;2.45;;;;;;;;;;5133301;27;20245;-67
2022/09/29 01:05:04;;;;;;;4.97;2.95;;;;;;;;;;5133582;27;20397;-68
2022/09/29 01:07:32;;;;;;;3.83;2.70;;;;;;;;;;5135603;27;20220;-68
2022/09/29 01:10:00;;;;;;;5.72;2.75;;;;;;;15.83;nan;94260.50;5133353;27;20231;-69
2022/09/29 01:12:26;;;;;;;3.40;2.85;;;;;;;;;;5133111;27;20249;-67
2022/09/29 01:14:53;;;;;;;4.97;2.60;;;;;;;;;;5133056;27;20196;-68
2022/09/29 01:17:20;;;;;;;7.47;2.72;;;;;;;;;;5133301;27;20265;-67
2022/09/29 01:19:51;;;;;;;4.00;3.15;;;;;;;;;;5136616;27;20204;-65
2022/09/29 01:22:24;;;;;;;4.18;3.00;;;;;;;;;;5132824;27;20666;-67
2022/09/29 01:25:06;;;;;;;2.58;2.35;;;;;;;;;;5134810;27;20198;-67
2022/09/29 01:27:39;;;;;;;4.88;2.80;;;;;;;;;;5133007;27;20196;-68
2022/09/29 01:30:18;;;;;;;3.38;3.08;;;;;;;;;;5133283;27;20288;-68
2022/09/29 01:33:04;;;;;;;5.65;3.33;;;;;;;;;;5133727;27;20627;-68
2022/09/29 01:35:36;;;;;;;5.28;3.25;;;;;;;;;;5132881;27;20193;-67
2022/09/29 01:38:09;;;;;;;4.13;3.00;;;;;;;;;;5132454;27;20701;-68
2022/09/29 01:40:41;;;;;;;8.57;4.40;;;;;;;;;;5132638;27;20207;-68
2022/09/29 01:43:09;;;;;;;8.18;4.00;;;;;;;;;;5133569;27;20253;-70
2022/09/29 01:45:37;;;;;;;7.32;3.92;;;;;;;;;;5133102;27;20628;-68
2022/09/29 01:48:06;;;;;;;5.78;3.60;;;;;;;;;;5132735;27;20257;-68
2022/09/29 01:50:35;;;;;;;6.10;4.05;;;;;;;;;;5132085;27;20249;-67
2022/09/29 01:53:03;;;;;;;5.95;3.72;;;;;;;;;;5132595;27;20192;-68
2022/09/29 01:55:31;;;;;;;7.00;3.97;;;;;;;;;;5132321;27;20639;-67
2022/09/29 01:58:00;;;;;;;4.38;3.75;;;;;;;;;;5132267;27;20193;-68
2022/09/29 02:00:30;;;;;;;5.78;3.47;;;;;;;;;;5131443;27;20657;-68
2022/09/29 02:02:59;;;;;;;5.70;3.58;;;;;;;;;;5131937;27;20275;-68
2022/09/29 02:05:30;;;;;;;9.68;5.05;;;;;;;;;;5128854;27;20232;-69
2022/09/29 02:07:58;;;;;;;7.30;4.00;;;;;;;;;;5132241;27;20255;-69
2022/09/29 02:10:28;;;;;;;4.85;4.20;;;;;;;;;;5128758;27;20701;-68
2022/09/29 02:12:56;;;;;;;5.18;3.50;;;;;;;;;;5131906;27;20207;-69
2022/09/29 02:15:25;;;;;;;7.57;4.47;;;;;;;;;;5131378;27;20199;-68
2022/09/29 02:17:53;;;;;;;4.95;4.25;;;;;;;;;;5131266;27;20192;-68
2022/09/29 02:20:21;;;;;;;4.55;3.90;;;;;;;14.93;nan;94256.91;5130828;27;20188;-68
2022/09/29 02:22:49;;;;;;;7.40;3.72;;;;;;;;;;5131352;27;20188;-68
2022/09/29 02:25:17;;;;;;;2.90;2.70;;;;;;;;;;5126061;27;20264;-68
2022/09/29 02:27:43;;;;;;;5.50;3.70;;;;;;;;;;5125828;27;20245;-68
2022/09/29 02:30:10;;;;;;;5.53;3.03;;;;;;;;;;5128972;27;20216;-69
2022/09/29 02:32:37;;;;;;;8.23;3.55;;;;;;;;;;5131682;27;20704;-69
2022/09/29 02:35:05;;;;;;;9.38;3.05;;;;;;;;;;5132129;27;20200;-69
2022/09/29 02:37:40;;;;;;;6.18;2.90;;;;;;;;;;5131980;28;20291;-68
2022/09/29 02:40:13;;;;;;;3.20;3.00;;;;;;;;;;5131481;28;20196;-69
2022/09/29 02:42:42;;;;;;;6.63;3.03;;;;;;;;;;5131937;28;20196;-68
2022/09/29 02:45:18;;;;;;;3.45;3.17;;;;;;;;;;5131906;28;20287;-68
2022/09/29 02:47:54;;;;;;;5.68;3.08;;;;;;;;;;5131971;28;20196;-68
2022/09/29 02:50:30;;;;;;;7.72;3.45;;;;;;;;;;5131509;28;20226;-67
2022/09/29 02:53:03;;;;;;;4.47;2.65;;;;;;;;;;5131639;28;20195;-68
2022/09/29 02:55:33;;;;;;;4.53;3.13;;;;;;;;;;5131838;28;20199;-68
2022/09/29 02:58:03;;;;;;;7.72;3.83;;;;;;;;;;5131700;28;20666;-68
2022/09/29 03:00:30;;;;;;;6.15;3.05;;;;;;;;;;5131598;28;20192;-68
2022/09/29 03:02:56;;;;;;;7.45;3.35;;;;;;;;;;5131863;28;20203;-67
2022/09/29 03:05:23;;;;;;;7.82;3.40;;;;;;;;;;5131443;28;20200;-67
2022/09/29 03:07:50;;;;;;;4.00;3.60;;;;;;;;;;5131813;28;20227;-68
2022/09/29 03:10:17;;;;;;;4.22;3.03;;;;;;;;;;5131519;28;20201;-68
2022/09/29 03:12:46;;;;;;;8.50;3.03;;;;;;;;;;5131566;28;20188;-68
2022/09/29 03:15:12;;;;;;;6.05;3.30;;;;;;;;;;5131407;28;20284;-67
2022/09/29 03:17:39;;;;;;;6.82;3.42;;;;;;;;;;5131192;28;20731;-68
2022/09/29 03:20:06;;;;;;;4.90;2.90;;;;;;;;;;5131495;28;20193;-68
2022/09/29 03:22:32;;;;;;;12.73;4.03;;;;;;;;;;5131566;28;20200;-69
2022/09/29 03:24:59;;;;;;;6.10;3.10;;;;;;;;;;5131037;28;20215;-69
2022/09/29 03:27:25;;;;;;;4.57;3.38;;;;;;;;;;5131492;28;20552;-69
2022/09/29 03:29:53;;;;;;;5.13;3.38;;;;;;;;;;5132246;27;20284;-69
2022/09/29 03:32:19;;;;;;;6.15;3.30;;;;;;;;;;5135605;27;20192;-68
2022/09/29 03:34:46;;;;;;;7.20;3.30;;;;;;;;;;5135138;27;20249;-69
2022/09/29 03:37:12;;;;;;;8.57;3.63;;;;;;;;;;5135122;27;20196;-69
2022/09/29 03:39:39;;;;;;;8.00;3.42;;;;;;;;;;5135182;27;20200;-69
2022/09/29 03:42:05;;;;;;;10.73;3.03;;;;;;;;;;5134807;27;20197;-69
2022/09/29 03:44:32;;;;;;;5.88;3.38;;;;;;;;;;5134964;27;20200;-69
2022/09/29 03:47:00;;;;;;;9.40;5.60;;;;;;;;;;5135024;27;20200;-69
2022/09/29 03:49:27;;;;;;;19.70;11.65;;;;;;;;;;5134637;27;20882;-69
2022/09/29 03:51:53;;;;;;;24.67;12.60;;;;;;;;;;5135031;27;20651;-68
2022/09/29 03:54:20;;;;;;;15.60;8.75;;;;;;;;;;5134832;27;20200;-69
2022/09/29 03:56:46;;;;;;;6.28;4.05;;;;;;;;;;5134543;27;20309;-69
2022/09/29 03:59:13;;;;;;;4.13;3.58;;;;;;;;;;5134541;27;20200;-69
2022/09/29 04:01:40;;;;;;;6.05;3.22;;;;;;;;;;5135101;27;20245;-68
2022/09/29 04:04:08;;;;;;;3.42;3.08;;;;;;;;;;5134647;27;20200;-69
2022/09/29 04:06:35;;;;;;;8.07;3.28;;;;;;;;;;5134063;27;20284;-68
2022/09/29 04:09:01;;;;;;;3.95;3.13;;;;;;;;;;5135040;27;20202;-69
2022/09/29 04:11:28;;;;;;;4.57;3.72;;;;;;;;;;5135538;27;20220;-69
2022/09/29 04:13:54;;;;;;;4.45;3.47;;;;;;;;;;5135277;27;20208;-68
2022/09/29 04:16:21;;;;;;;5.85;3.28;;;;;;;;;;5134078;27;20188;-68
2022/09/29 04:18:48;;;;;;;8.65;3.42;;;;;;;;;;5134236;27;20278;-70
2022/09/29 04:21:29;;;;;;;4.45;3.45;;;;;;;;;;5140825;27;20750;-69
2022/09/29 04:23:56;;;;;;;8.52;4.43;;;;;;;;;;5141950;27;20185;-68
2022/09/29 04:26:22;;;;;;;7.75;4.30;;;;;;;;;;5134948;27;20188;-67
2022/09/29 04:28:49;;;;;;;12.63;4.20;;;;;;;;;;5134315;27;20245;-68
2022/09/29 04:31:15;;;;;;;5.75;4.03;;;;;;;;;;5134674;27;20208;-68
2022/09/29 04:33:42;;;;;;;13.88;4.32;;;;;;;;;;5134584;27;20192;-67
2022/09/29 04:36:08;;;;;;;5.40;4.70;;;;;;;;;;5134229;27;20245;-68
2022/09/29 04:38:40;;;;;;;12.70;5.15;;;;;;;;;;5134422;27;20636;-69
2022/09/29 04:41:06;;;;;;;5.95;4.80;;;;;;;;;;5135012;27;20192;-68
2022/09/29 04:43:33;;;;;;;13.45;5.35;;;;;;;;;;5134684;27;20200;-70
2022/09/29 04:46:03;;;;;;;8.90;5.07;;;;;;;;;;5134859;27;20196;-69
2022/09/29 04:48:29;;;;;;;13.77;5.65;;;;;;;;;;5135180;27;20272;-68
2022/09/29 04:50:59;;;;;;;12.82;5.22;;;;;;;;;;5135074;27;20285;-69
2022/09/29 04:53:25;;;;;;;11.48;5.28;;;;;;;;;;5135353;27;20260;-67
2022/09/29 04:55:53;;;;;;;9.73;5.05;;;;;;;;;;5134955;27;20197;-67
2022/09/29 04:58:23;;;;;;;15.02;5.47;;;;;;;;;;5135715;27;20197;-70
2022/09/29 05:00:50;;;;;;;7.32;6.28;;;;;;;;;;5136375;27;20591;-68
2022/09/29 05:03:16;;;;;;;7.07;5.57;;;;;;;;;;5132842;27;20196;-68
2022/09/29 05:05:43;;;;;;;16.58;7.28;;;;;;;;;;5133175;27;20663;-68
2022/09/29 05:08:09;;;;;;;19.17;7.15;;;;;;;;;;5133677;27;20257;-68
2022/09/29 05:10:36;;;;;;;14.15;5.85;;;;;;;;;;5132961;27;20224;-67
2022/09/29 05:13:04;;;;;;;16.35;5.72;;;;;;;;;;5133286;27;20192;-68
2022/09/29 05:15:30;;;;;;;7.38;5.80;;;;;;;;;;5133474;27;20192;-67
2022/09/29 05:18:01;;;;;;;20.25;6.10;;;;;;;;;;5133160;27;20196;-68
2022/09/29 05:20:27;;;;;;;8.65;6.28;;;;;;;;;;5133021;27;20188;-68
2022/09/29 05:22:54;;;;;;;14.55;6.57;;;;;;;;;;5132995;27;20199;-67
2022/09/29 05:25:20;;;;;;;12.32;6.20;;;;;;;;;;5132817;27;20336;-67
2022/09/29 05:27:47;;;;;;;13.88;5.93;;;;;;;;;;5132927;27;20633;-69
2022/09/29 05:30:14;;;;;;;8.75;5.10;;;;;;;;;;5132857;27;20272;-68
2022/09/29 05:32:42;;;;;;;11.32;6.30;;;;;;;;;;5132892;27;20192;-68
2022/09/29 05:35:09;;;;;;;6.45;5.75;;;;;;;;;;5132657;27;20197;-69
2022/09/29 05:37:35;;;;;;;13.18;7.10;;;;;;;;;;5132928;27;20264;-68
2022/09/29 05:40:03;;;;;;;16.98;7.28;;;;;;;;;;5132364;27;20253;-67
2022/09/29 05:42:30;;;;;;;18.50;7.00;;;;;;;;;;5132603;27;20596;-67
2022/09/29 05:44:57;;;;;;;15.65;5.78;;;;;;;;;;5132793;27;20205;-67
2022/09/29 05:47:24;;;;;;;11.02;6.20;;;;;;;;;;5132650;27;20249;-68
2022/09/29 05:49:51;;;;;;;12.05;6.68;;;;;;;;;;5132464;27;20746;-68
2022/09/29 05:52:18;;;;;;;9.05;5.70;;;;;;;;;;5132339;27;20680;-69
2022/09/29 05:54:44;;;;;;;18.95;6.15;;;;;;;;;;5132623;27;20200;-67
2022/09/29 05:57:10;;;;;;;13.52;6.05;;;;;;;;;;5132757;27;20192;-67
2022/09/29 05:59:37;;;;;;;15.07;5.70;;;;;;;;;;5132043;27;20666;-68
2022/09/29 06:02:03;;;;;;;10.73;6.00;;;;;;;;;;5132609;27;20188;-68
2022/09/29 06:04:32;;;;;;;8.07;5.38;;;;;;;;;;5132311;27;20248;-67
2022/09/29 06:06:58;;;;;;;13.15;6.40;;;;;;;;;;5132328;27;20322;-69
2022/09/29 06:09:25;;;;;;;13.70;6.90;;;;;;;;;;5131916;27;20203;-68
2022/09/29 06:11:51;;;;;;;22.50;7.25;;;;;;;;;;5132162;27;20261;-68
2022/09/29 06:14:18;;;;;;;7.68;5.40;;;;;;;;;;5132194;27;20201;-68
2022/09/29 06:16:44;;;;;;;14.77;5.72;;;;;;;;;;5131972;27;20199;-68
2022/09/29 06:19:12;;;;;;;11.80;5.78;;;;;;;;;;5131984;27;20199;-68
2022/09/29 06:21:40;;;;;;;12.55;6.20;;;;;;;;;;5132297;27;20199;-69
2022/09/29 06:24:07;;;;;;;13.35;5.50;;;;;;;;;;5132297;27;20690;-67
2022/09/29 06:26:33;;;;;;;7.88;4.70;;;;;;;;;;5132116;27;20283;-67
2022/09/29 06:29:00;;;;;;;12.68;5.25;;;;;;;;;;5131726;27;20632;-67
2022/09/29 06:31:27;;;;;;;11.38;5.03;;;;;;;;;;5131471;27;20253;-67
2022/09/29 06:33:56;;;;;;;7.00;4.85;;;;;;;;;;5131954;27;20641;-68
2022/09/29 06:39:10;;;;;;;5.93;5.18;;;;;;;;;;5131831;28;20201;-67
2022/09/29 06:41:37;;;;;;;10.98;6.55;;;;;;;;;;5131898;28;20352;-69
2022/09/29 06:44:03;;;;;;;12.48;6.60;;;;;;;;;;5132159;28;20196;-68
2022/09/29 06:46:30;;;;;;;15.18;6.82;;;;;;;;;;5132229;28;20257;-69
2022/09/29 06:48:57;;;;;;;17.83;11.55;;;;;;;;;;5131984;28;20200;-69
2022/09/29 06:51:24;;;;;;;13.32;5.65;;;;;;;21.08;nan;94315.34;5131940;28;20220;-68
2022/09/29 06:53:51;;;;;;;12.15;6.00;;;;;;;;;;5132055;28;20188;-69
2022/09/29 06:56:20;;;;;;;9.48;5.78;;;;;;;;;;5132289;28;20192;-69
2022/09/29 06:58:46;;;;;;;7.22;5.43;;;;;;;;;;5132023;28;20196;-67
2022/09/29 07:01:13;;;;;;;9.30;4.43;;;;;;;;;;5131842;28;20196;-67
2022/09/29 07:03:40;;;;;;;9.55;4.60;;;;;;;;;;5131625;28;20200;-70
2022/09/29 07:06:07;;;;;;;11.90;4.80;;;;;;;;;;5134409;27;20236;-68
2022/09/29 07:08:35;;;;;;;10.20;5.72;;;;;;;;;;5136140;27;20192;-69
2022/09/29 07:11:02;;;;;;;9.88;5.15;;;;;;;;;;5135414;27;20269;-68
2022/09/29 07:13:30;;;;;;;11.27;4.80;;;;;;;;;;5135762;27;20284;-68
2022/09/29 07:16:02;;;;;;;9.73;3.78;;;;;;;;;;5135488;27;20204;-68
2022/09/29 07:18:30;;;;;;;9.68;4.05;;;;;;;;;;5135515;27;20200;-67
2022/09/29 07:20:56;;;;;;;8.07;3.22;;;;;;;;;;5135471;27;20249;-68
2022/09/29 07:23:24;;;;;;;11.30;3.70;;;;;;;28.77;nan;94309.53;5135672;27;20670;-68
2022/09/29 07:25:50;;;;;;;12.57;3.67;;;;;;;;;;5135043;27;20207;-69
2022/09/29 07:28:17;;;;;;;9.15;3.35;;;;;;;28.38;nan;94301.97;5135880;27;20192;-69
2022/09/29 07:30:45;;;;;;;9.85;5.03;;;;;;;;;;5134837;27;20742;-67
2022/09/29 07:33:12;;;;;;;11.38;4.25;;;;;;;27.95;nan;94299.03;5135550;27;20207;-68
2022/09/29 07:35:38;;;;;;;11.50;4.30;;;;;;;;;;5135958;27;20200;-68
2022/09/29 07:38:05;;;;;;;11.80;3.85;;;;;;;27.06;nan;94305.59;5135218;27;20195;-67
2022/09/29 07:40:32;;;;;;;6.93;3.20;;;;;;;27.37;nan;94312.63;5134976;27;20192;-68
2022/09/29 07:42:59;;;;;;;16.95;3.78;;;;;;;28.42;nan;94311.88;5135231;27;20193;-68
2022/09/29 07:45:26;;;;;;;10.88;4.32;;;;;;;28.18;nan;94316.50;5135101;27;20200;-67
2022/09/29 07:47:56;;;;;;;12.70;3.75;;;;;;;27.73;nan;94315.50;5135030;27;20200;-67
2022/09/29 07:50:23;;;;;;;8.10;3.72;;;;;;;;;;5134981;27;20196;-68
2022/09/29 07:52:50;;;;;;;14.73;4.20;;;;;;;27.95;nan;94333.00;5136238;27;20220;-68
2022/09/29 07:55:18;;;;;;;14.93;5.38;;;;;;;28.10;nan;94333.03;5136525;27;20197;-67
2022/09/29 07:58:01;;;;;;;14.63;4.93;;;;;;;27.77;nan;94335.88;5135404;27;20196;-69
2022/09/29 08:00:29;;;;;;;6.82;2.95;;;;;;;;;;5134991;27;20680;-68
2022/09/29 08:03:02;;;;;;;12.52;3.55;;;;;;;27.73;nan;94339.00;5135141;27;20272;-67
2022/09/29 08:05:32;;;;;;;8.13;5.05;;;;;;;26.40;nan;94351.03;5134964;27;20293;-68
2022/09/29 08:07:59;;;;;;;11.57;3.90;;;;;;;;;;5135272;27;20237;-68
2022/09/29 08:10:27;;;;;;;4.65;3.65;;;;;;;25.32;nan;94349.38;5135373;27;20192;-69
2022/09/29 08:12:54;;;;;;;9.70;3.45;;;;;;;26.55;nan;94348.56;5135003;27;20328;-68
2022/09/29 08:15:22;;;;;;;8.48;3.15;;;;;;;27.49;nan;94352.97;5134986;27;20201;-69
2022/09/29 08:17:48;;;;;;;12.85;3.75;;;;;;;;;;5133273;27;20204;-68
2022/09/29 08:20:16;;;;;;;18.27;4.00;;;;;;;;;;5134888;27;20207;-69
2022/09/29 08:22:43;;;;;;;8.00;3.53;;;;;;;29.84;nan;94357.00;5134762;27;20219;-69
2022/09/29 08:25:10;;;;;;;11.07;3.28;;;;;;;;;;5134716;27;20257;-69
2022/09/29 08:27:37;;;;;;;11.77;3.58;;;;;;;;;;5134265;27;20211;-68
2022/09/29 08:30:04;;;;;;;6.72;3.85;;;;;;;;;;5134275;27;20200;-68
2022/09/29 08:32:31;;;;;;;18.08;3.35;;;;;;;;;;5134240;27;20231;-69
2022/09/29 08:34:57;;;;;;;6.60;3.45;;;;;;;;;;5134639;27;20192;-68
2022/09/29 08:37:27;;;;;;;6.75;3.13;;;;;;;;;;5134243;27;20600;-68
2022/09/29 08:39:54;;;;;;;8.30;3.72;;;;;;;;;;5133933;27;20211;-69
2022/09/29 08:42:25;;;;;;;7.25;3.88;;;;;;;;;;5134185;27;20244;-73
2022/09/29 08:44:57;;;;;;;4.70;2.92;;;;;;;;;;5133910;27;20207;-68
2022/09/29 08:47:27;;;;;;;5.85;3.38;;;;;;;;;;5133642;27;20658;-67
2022/09/29 08:49:56;;;;;;;5.85;4.20;;;;;;;;;;5134981;27;20212;-69
2022/09/29 08:52:25;;;;;;;8.50;3.88;;;;;;;;;;5134344;27;20224;-68
2022/09/29 08:54:55;;;;;;;10.23;2.85;;;;;;;;;;5134230;27;20193;-68
2022/09/29 08:57:21;;;;;;;8.68;2.95;;;;;;;;;;5133591;27;20192;-69
2022/09/29 08:59:52;;;;;;;12.02;3.40;;;;;;;;;;5133752;27;20203;-67
2022/09/29 09:02:31;;;;;;;9.50;3.70;;;;;;;;;;5133774;27;20196;-67
2022/09/29 09:05:22;;;;;;;8.10;4.40;;;;;;;26.00;nan;94348.38;5133377;27;20192;-67
2022/09/29 09:07:52;;;;;;;9.35;3.10;;;;;;;;;;5134583;27;20208;-67
2022/09/29 09:10:29;;;;;;;3.58;2.35;;;;;;;;;;5133860;27;20326;-67
2022/09/29 09:13:10;;;;;;;4.07;2.40;;;;;;;;;;5133326;27;20228;-69
2022/09/29 09:15:41;;;;;;;7.07;2.08;;;;;;;;;;5129391;27;20202;-67
2022/09/29 09:18:18;;;;;;;5.28;2.65;;;;;;;;;;5133467;27;20662;-68
2022/09/29 09:20:51;;;;;;;8.65;2.63;;;;;;;;;;5133551;27;20196;-71
2022/09/29 09:23:20;;;;;;;4.53;2.38;;;;;;;;;;5133422;27;20192;-68
2022/09/29 09:25:51;;;;;;;8.45;2.40;;;;;;;;;;5133783;27;20204;-70
2022/09/29 09:28:19;;;;;;;3.17;2.22;;;;;;;;;;5133272;27;20936;-70
2022/09/29 09:30:49;;;;;;;7.43;1.80;;;;;;;;;;5133414;27;20207;-69
2022/09/29 09:33:19;;;;;;;4.18;2.00;;;;;;;;;;5133233;27;20301;-69
2022/09/29 09:35:49;;;;;;;4.15;2.20;;;;;;;;;;5133094;27;20193;-69
2022/09/29 09:38:18;;;;;;;8.15;2.88;;;;;;;;;;5133096;27;20188;-68
2022/09/29 09:40:45;;;;;;;6.05;2.65;;;;;;;;;;5133373;27;20207;-68
2022/09/29 09:43:19;;;;;;;2.60;1.85;;;;;;;;;;5132917;27;20193;-68
2022/09/29 09:45:48;;;;;;;7.15;2.65;;;;;;;;;;5132870;27;20200;-68
2022/09/29 09:48:19;;;;;;;11.38;3.25;;;;;;;;;;5132695;27;20689;-67
2022/09/29 09:50:46;;;;;;;6.60;2.88;;;;;;;;;;5132842;27;20192;-68
2022/09/29 09:53:15;;;;;;;9.23;2.35;;;;;;;;;;5132722;27;20224;-69
2022/09/29 09:55:42;;;;;;;7.00;2.95;;;;;;;;;;5132634;27;20730;-68
2022/09/29 09:58:24;;;;;;;6.35;2.88;;;;;;;;;;5132802;27;20188;-68
2022/09/29 10:00:53;;;;;;;7.90;2.83;;;;;;;;;;5132678;27;20264;-68
2022/09/29 10:03:19;;;;;;;4.95;2.72;;;;;;;;;;5132517;27;20249;-68
2022/09/29 10:05:47;;;;;;;2.10;1.88;;;;;;;;;;5132117;27;20228;-68
2022/09/29 10:08:18;;;;;;;3.70;2.45;;;;;;;;;;5132591;27;20738;-70
2022/09/29 10:10:45;;;;;;;3.78;2.25;;;;;;;;;;5131793;27;20200;-67
2022/09/29 10:13:13;;;;;;;5.28;2.30;;;;;;;;;;5132208;27;20227;-69
2022/09/29 10:15:44;;;;;;;2.75;2.22;;;;;;;;;;5132424;27;20253;-67
2022/09/29 10:18:13;;;;;;;8.02;2.35;;;;;;;;;;5132107;27;20189;-68
2022/09/29 10:20:41;;;;;;;4.80;2.10;;;;;;;;;;5132452;27;20203;-67
2022/09/29 10:23:23;;;;;;;6.22;2.45;;;;;;;;;;5129123;27;20196;-69
2022/09/29 10:25:54;;;;;;;6.50;1.80;;;;;;;;;;5129376;27;20717;-68
2022/09/29 10:28:22;;;;;;;2.08;1.88;;;;;;;;;;5133194;27;20207;-69
2022/09/29 10:30:50;;;;;;;7.13;2.92;;;;;;;;;;5132243;27;20288;-71
2022/09/29 10:33:17;;;;;;;6.85;2.72;;;;;;;;;;5132191;27;20744;-69
2022/09/29 10:35:45;;;;;;;6.80;2.67;;;;;;;;;;5132486;27;20196;-70
2022/09/29 10:38:16;;;;;;;7.30;3.05;;;;;;;;;;5132536;28;20196;-69
2022/09/29 10:40:53;;;;;;;7.72;3.65;;;;;;;;;;5131839;27;20301;-68
2022/09/29 10:43:23;;;;;;;4.03;1.98;;;;;;;;;;5132493;28;20188;-69
2022/09/29 10:45:57;;;;;;;4.93;2.42;;;;;;;;;;5132967;28;20227;-69
2022/09/29 10:48:24;;;;;;;10.48;3.10;;;;;;;;;;5132260;28;20196;-69
2022/09/29 10:50:51;;;;;;;6.03;2.55;;;;;;;;;;5131944;28;20204;-71
2022/09/29 10:53:21;;;;;;;2.60;2.15;;;;;;;;;;5132045;28;20724;-69
2022/09/29 10:55:50;;;;;;;4.50;2.60;;;;;;;;;;5132452;28;20200;-69
2022/09/29 10:58:20;;;;;;;1.98;1.77;;;;;;;;;;5132040;28;20240;-69
2022/09/29 11:00:47;;;;;;;3.17;1.95;;;;;;;;;;5131283;28;20249;-69
2022/09/29 11:03:19;;;;;;;2.17;2.03;;;;;;;;;;5131638;28;20195;-70
2022/09/29 11:05:52;;;;;;;1.65;1.55;;;;;;;;;;5122931;28;20287;-69
2022/09/29 11:08:24;;;;;;;1.75;1.63;;;;;;;;;;5131510;28;20207;-69
2022/09/29 11:11:02;;;;;;;3.42;2.95;;;;;;;;;;5131972;28;20204;-72
2022/09/29 11:13:36;;;;;;;2.25;1.92;;;;;;;;;;5132171;28;20306;-69
2022/09/29 11:16:03;;;;;;;3.65;2.10;;;;;;;;;;5131843;28;20204;-68
2022/09/29 11:18:32;;;;;;;6.65;2.40;;;;;;;;;;5131821;28;20214;-66
2022/09/29 11:21:04;;;;;;;11.23;10.07;;;;;;;;;;5131271;28;20253;-69
2022/09/29 11:23:34;;;;;;;5.57;1.75;;;;;;;;;;5131724;28;20665;-70
2022/09/29 11:26:27;;;;;;;9.73;2.10;;;;;;;;;;5131650;28;20220;-69
2022/09/29 11:28:58;;;;;;;1.90;1.80;;;;;;;;;;5082969;28;20192;-69
2022/09/29 11:31:32;;;;;;;3.30;2.33;;;;;;;;;;5131381;28;20241;-68
2022/09/29 11:34:06;;;;;;;2.47;1.40;;;;;;;;;;5131629;28;20647;-70
2022/09/29 11:36:38;;;;;;;2.40;1.45;;;;;;;;;;5131641;28;20200;-70
2022/09/29 11:39:12;;;;;;;2.83;2.60;;;;;;;;;;5131214;28;20735;-68
2022/09/29 11:41:50;;;;;;;2.90;2.30;;;;;;;;;;5131318;28;20200;-69
2022/09/29 11:44:27;;;;;;;1.95;1.80;;;;;;;;;;5131098;28;20731;-69
2022/09/29 11:47:02;;;;;;;3.33;2.30;;;;;;;;;;5130958;28;20196;-69
2022/09/29 11:49:43;;;;;;;2.90;1.83;;;;;;;;;;5130964;28;20192;-68
2022/09/29 11:52:20;;;;;;;13.27;3.13;;;;;;;;;;5130396;27;20258;-69
2022/09/29 11:54:51;;;;;;;5.97;2.45;;;;;;;;;;5134796;27;20192;-69
2022/09/29 11:57:23;;;;;;;3.15;1.85;;;;;;;;;;5134988;27;20197;-68
2022/09/29 12:00:00;;;;;;;5.50;2.40;;;;;;;;;;5134686;27;20258;-71
2022/09/29 12:02:40;;;;;;;7.57;2.88;;;;;;;;;;5134473;27;20665;-71
2022/09/29 12:05:10;;;;;;;6.18;3.30;;;;;;;;;;5134915;27;20206;-68
2022/09/29 12:07:44;;;;;;;4.03;2.42;;;;;;;;;;5134565;27;20273;-69
2022/09/29 12:10:27;;;;;;;3.33;2.33;;;;;;;;;;5134664;27;20207;-69
2022/09/29 12:13:00;;;;;;;3.22;2.45;;;;;;;;;;5134384;27;20220;-69
2022/09/29 12:15:31;;;;;;;4.55;2.67;;;;;;;;;;5134473;27;20200;-68
2022/09/29 12:18:00;;;;;;;2.97;2.08;;;;;;;;;;5134285;27;20567;-69
2022/09/29 12:20:29;;;;;;;2.38;2.25;;;;;;;;;;5134335;27;20276;-71
2022/09/29 12:23:00;;;;;;;3.50;2.40;;;;;;;;;;5134226;27;20212;-70
2022/09/29 12:25:28;;;;;;;2.75;2.55;;;;;;;;;;5134100;27;20200;-69
2022/09/29 12:27:56;;;;;;;3.10;2.10;;;;;;;;;;5134638;27;20200;-70
2022/09/29 12:30:25;;;;;;;2.17;2.08;;;;;;;;;;5134101;27;20192;-70
2022/09/29 12:32:56;;;;;;;5.43;2.65;;;;;;;;;;5133931;27;20315;-70
2022/09/29 12:35:25;;;;;;;3.80;2.17;;;;;;;;;;5134183;27;20584;-70
2022/09/29 12:37:54;;;;;;;3.20;2.30;;;;;;;;;;5134024;27;20581;-70
2022/09/29 12:40:23;;;;;;;2.30;2.20;;;;;;;;;;5133885;27;20256;-69
2022/09/29 12:43:02;;;;;;;2.00;1.90;;;;;;;;;;5133854;27;20701;-68
2022/09/29 12:45:32;;;;;;;3.58;2.58;;;;;;;;;;5133501;27;20749;-68
2022/09/29 12:48:05;;;;;;;5.30;2.60;;;;;;;;;;5133852;27;20236;-68
2022/09/29 12:50:33;;;;;;;6.13;5.63;;;;;;;;;;5133375;27;20257;-67
2022/09/29 12:53:04;;;;;;;9.68;7.65;;;;;;;;;;5133980;27;20657;-69
2022/09/29 12:55:40;;;;;;;3.10;2.25;;;;;;;;;;5133604;27;20253;-70
2022/09/29 12:58:14;;;;;;;2.90;2.40;;;;;;;;;;5133708;27;20201;-69
2022/09/29 13:00:43;;;;;;;2.80;2.00;;;;;;;;;;5133371;27;20196;-68
2022/09/29 13:03:28;;;;;;;6.97;2.28;;;;;;;;;;5132807;27;20277;-68
2022/09/29 13:06:02;;;;;;;3.33;1.85;;;;;;;;;;5133069;27;20234;-67
2022/09/29 13:08:41;;;;;;;4.25;2.20;;;;;;;;;;5133525;27;20207;-69
2022/09/29 13:11:17;;;;;;;2.83;2.30;;;;;;;;;;5133064;27;20216;-69
2022/09/29 13:14:05;;;;;;;4.70;1.92;;;;;;;;;;5133515;27;20586;-69
2022/09/29 13:16:44;;;;;;;3.08;2.10;;;;;;;;;;5133026;27;20253;-68
2022/09/29 13:19:26;;;;;;;5.80;2.42;;;;;;;;;;5132943;27;20218;-69
2022/09/29 13:21:57;;;;;;;5.70;2.53;;;;;;;;;;5129348;27;20196;-68
2022/09/29 13:24:39;;;;;;;2.95;1.58;;;;;;;;;;5133216;27;20253;-68
2022/09/29 13:27:14;;;;;;;6.97;2.67;;;;;;;;;;5132806;27;20196;-68
2022/09/29 13:29:45;;;;;;;3.75;1.88;;;;;;;;;;5133137;27;20249;-70
2022/09/29 13:32:12;;;;;;;3.15;2.20;;;;;;;;;;5132963;27;20224;-70
2022/09/29 13:34:39;;;;;;;2.58;2.13;;;;;;;;;;5132829;27;20224;-70
2022/09/29 13:37:08;;;;;;;4.28;2.63;;;;;;;;;;5132749;27;20196;-69
2022/09/29 13:39:35;;;;;;;4.32;2.05;;;;;;;;;;5132746;27;20260;-70
2022/09/29 13:42:20;;;;;;;3.22;2.15;;;;;;;;;;5133150;27;20189;-68
2022/09/29 13:45:09;;;;;;;3.30;2.78;;;;;;;;;;5133150;27;20666;-68
2022/09/29 13:47:44;;;;;;;9.75;7.95;;;;;;;;;;5132281;27;20249;-69
2022/09/29 13:50:29;;;;;;;2.75;2.55;;;;;;;;;;5132526;27;20191;-71
2022/09/29 13:53:15;;;;;;;2.30;2.20;;;;;;;;;;5132308;27;20676;-69
2022/09/29 13:55:50;;;;;;;2.42;1.75;;;;;;;;;;5132035;27;20200;-68
2022/09/29 13:58:22;;;;;;;2.45;2.25;;;;;;;;;;5132334;27;20192;-68
2022/09/29 14:00:48;;;;;;;4.32;2.65;;;;;;;;;;5132490;27;20200;-69
2022/09/29 14:03:33;;;;;;;3.38;2.05;;;;;;;;;;5132460;27;20219;-67
2022/09/29 14:06:07;;;;;;;4.28;2.25;;;;;;;;;;5131930;27;20799;-68
2022/09/29 14:08:39;;;;;;;2.83;2.22;;;;;;;;;;5132470;27;20196;-67
2022/09/29 14:11:15;;;;;;;4.30;2.60;;;;;;;;;;5131600;27;20196;-70
2022/09/29 14:13:44;;;;;;;5.75;3.45;;;;;;;;;;5131821;27;20219;-68
2022/09/29 14:16:16;;;;;;;4.78;4.25;;;;;;;;;;5131557;27;20276;-69
2022/09/29 14:18:46;;;;;;;6.07;4.25;;;;;;;;;;5132349;27;20637;-69
2022/09/29 14:21:13;;;;;;;4.68;3.70;;;;;;;;;;5131521;27;20196;-68
2022/09/29 14:23:50;;;;;;;7.72;4.90;;;;;;;;;;5131958;27;20197;-69
2022/09/29 14:26:35;;;;;;;5.20;4.70;;;;;;;;;;5131472;27;20195;-69
2022/09/29 14:29:03;;;;;;;8.25;5.45;;;;;;;;;;5131951;27;20196;-69
2022/09/29 14:31:30;;;;;;;6.72;5.28;;;;;;;;;;5131632;27;20200;-69
2022/09/29 14:33:57;;;;;;;4.80;4.40;;;;;;;;;;5131537;27;20216;-67
2022/09/29 14:36:27;;;;;;;3.03;2.63;;;;;;;22.37;nan;94358.16;5131645;27;20200;-70
2022/09/29 14:38:54;;;;;;;7.88;5.70;;;;;;;;;;5132057;27;20192;-71
2022/09/29 14:41:26;;;;;;;8.68;7.80;;;;;;;;;;5131358;28;20196;-68
2022/09/29 14:43:55;;;;;;;4.82;3.17;;;;;;;;;;5131981;28;20253;-68